createdAt,value
2024-03-10T00:00:01.910Z,54.73
2024-03-10T00:01:01.914Z,54.94
2024-03-10T00:02:02.043Z,50.60
2024-03-10T00:03:02.081Z,51.45
2024-03-10T00:04:01.917Z,53.48
2024-03-10T00:05:01.950Z,50.42
2024-03-10T00:06:01.876Z,53.25
2024-03-10T00:07:01.987Z,51.75
2024-03-10T00:08:01.876Z,52.04
2024-03-10T00:09:01.875Z,55.05
2024-03-10T00:10:01.845Z,52.60
2024-03-10T00:11:01.890Z,52.30
2024-03-10T00:12:01.911Z,52.16
2024-03-10T00:13:01.823Z,51.94
2024-03-10T00:14:01.882Z,53.66
2024-03-10T00:15:01.817Z,55.96
2024-03-10T00:16:01.805Z,55.31
2024-03-10T00:17:01.834Z,54.63
2024-03-10T00:18:01.910Z,56.90
2024-03-10T00:19:01.773Z,58.31
2024-03-10T00:20:01.925Z,56.26
2024-03-10T00:21:01.800Z,52.81
2024-03-10T00:22:01.752Z,57.92
2024-03-10T00:23:01.856Z,56.08
2024-03-10T00:24:01.759Z,54.77
2024-03-10T00:25:01.799Z,58.38
2024-03-10T00:26:01.824Z,60.46
2024-03-10T00:27:01.777Z,55.14
2024-03-10T00:28:01.740Z,56.82
2024-03-10T00:29:01.782Z,58.72
2024-03-10T00:30:01.756Z,59.34
2024-03-10T00:31:01.734Z,53.52
2024-03-10T00:32:01.833Z,57.81
2024-03-10T00:33:01.936Z,57.74
2024-03-10T00:34:02.019Z,55.80
2024-03-10T00:35:02.071Z,56.00
2024-03-10T00:36:02.133Z,55.74
2024-03-10T00:37:02.232Z,53.78
2024-03-10T00:38:02.366Z,56.16
2024-03-10T00:39:02.442Z,55.60
2024-03-10T00:40:02.582Z,58.97
2024-03-10T00:41:02.573Z,55.80
2024-03-10T00:42:02.640Z,56.74
2024-03-10T00:43:02.690Z,57.37
2024-03-10T00:44:02.793Z,55.58
2024-03-10T00:45:02.834Z,60.83
2024-03-10T00:46:02.898Z,58.56
2024-03-10T00:47:03.026Z,54.54
2024-03-10T00:48:03.076Z,56.90
2024-03-10T00:49:03.159Z,55.35
2024-03-10T00:50:03.329Z,59.07
2024-03-10T00:51:03.330Z,58.45
2024-03-10T00:52:03.381Z,57.81
2024-03-10T00:53:03.569Z,57.25
2024-03-10T00:54:03.569Z,57.51
2024-03-10T00:55:03.643Z,60.49
2024-03-10T00:56:03.771Z,58.22
2024-03-10T00:57:03.847Z,59.64
2024-03-10T00:58:03.869Z,60.86
2024-03-10T00:59:03.972Z,61.31
2024-03-10T01:00:04.028Z,59.26
2024-03-10T01:01:04.144Z,59.62
2024-03-10T01:02:04.213Z,59.58
2024-03-10T01:03:04.255Z,58.35
2024-03-10T01:04:04.320Z,58.65
2024-03-10T01:05:04.448Z,60.23
2024-03-10T01:06:04.480Z,58.87
2024-03-10T01:07:04.589Z,58.42
2024-03-10T01:08:04.688Z,55.49
2024-03-10T01:09:04.717Z,56.81
2024-03-10T01:10:04.834Z,59.70
2024-03-10T01:11:04.914Z,57.62
2024-03-10T01:12:05.000Z,59.51
2024-03-10T01:13:04.999Z,57.79
2024-03-10T01:14:05.121Z,57.65
2024-03-10T01:15:05.170Z,58.85
2024-03-10T01:16:05.257Z,54.68
2024-03-10T01:17:05.400Z,55.76
2024-03-10T01:18:05.449Z,55.65
2024-03-10T01:19:05.506Z,56.34
2024-03-10T01:20:05.782Z,58.76
2024-03-10T01:21:05.695Z,55.36
2024-03-10T01:22:20.286Z,50.00
2024-03-10T01:23:20.403Z,50.00
2024-03-10T01:24:20.368Z,50.00
2024-03-10T01:25:20.375Z,50.00
2024-03-10T01:26:20.398Z,50.00
2024-03-10T01:27:20.376Z,52.13
2024-03-10T01:28:20.362Z,54.44
2024-03-10T01:29:20.469Z,50.70
2024-03-10T01:30:20.421Z,52.80
2024-03-10T01:31:20.453Z,50.40
2024-03-10T01:32:20.550Z,52.51
2024-03-10T01:33:20.562Z,51.97
2024-03-10T01:34:20.667Z,52.33
2024-03-10T01:35:20.570Z,54.67
2024-03-10T01:36:20.482Z,52.41
2024-03-10T01:37:20.539Z,52.22
2024-03-10T01:38:20.780Z,53.77
2024-03-10T01:39:20.584Z,52.84
2024-03-10T01:40:20.595Z,51.50
2024-03-10T01:41:20.687Z,50.81
2024-03-10T01:42:20.672Z,54.02
2024-03-10T01:43:20.711Z,52.36
2024-03-10T01:44:20.720Z,50.88
2024-03-10T01:45:20.745Z,50.26
2024-03-10T01:46:20.704Z,50.50
2024-03-10T01:47:20.778Z,53.74
2024-03-10T01:48:20.815Z,53.64
2024-03-10T01:49:20.859Z,54.34
2024-03-10T01:50:20.841Z,54.26
2024-03-10T01:51:20.833Z,53.50
2024-03-10T01:52:20.871Z,52.24
2024-03-10T01:53:21.056Z,53.29
2024-03-10T01:54:21.077Z,53.69
2024-03-10T01:55:21.252Z,50.56
2024-03-10T01:56:21.542Z,54.80
2024-03-10T01:57:21.544Z,51.27
2024-03-10T01:58:21.566Z,52.67
2024-03-10T01:59:21.794Z,56.02
2024-03-10T02:00:21.827Z,52.12
2024-03-10T02:01:22.043Z,51.96
2024-03-10T02:02:22.149Z,52.48
2024-03-10T02:03:22.298Z,51.58
2024-03-10T02:04:22.438Z,53.09
2024-03-10T02:05:22.558Z,53.67
2024-03-10T02:06:22.687Z,53.85
2024-03-10T02:07:22.826Z,50.00
2024-03-10T02:08:23.130Z,54.37
2024-03-10T02:09:23.160Z,52.44
2024-03-10T02:10:23.242Z,54.74
2024-03-10T02:11:23.504Z,51.35
2024-03-10T02:12:23.543Z,52.47
2024-03-10T02:13:23.744Z,52.01
2024-03-10T02:14:23.907Z,55.21
2024-03-10T02:15:23.968Z,53.03
2024-03-10T02:16:24.124Z,53.35
2024-03-10T02:17:24.248Z,51.20
2024-03-10T02:18:24.407Z,55.06
2024-03-10T02:19:24.619Z,53.30
2024-03-10T02:20:24.806Z,54.84
2024-03-10T02:21:24.826Z,51.97
2024-03-10T02:22:24.945Z,54.07
2024-03-10T02:23:25.235Z,54.20
2024-03-10T02:24:25.200Z,54.09
2024-03-10T02:25:25.332Z,51.77
2024-03-10T02:26:25.529Z,51.65
2024-03-10T02:27:25.548Z,52.07
2024-03-10T02:28:25.693Z,54.04
2024-03-10T02:29:25.895Z,53.65
2024-03-10T02:30:25.889Z,50.38
2024-03-10T02:31:26.020Z,52.51
2024-03-10T02:32:26.270Z,54.51
2024-03-10T02:33:26.310Z,55.24
2024-03-10T02:34:26.351Z,53.07
2024-03-10T02:35:26.581Z,54.50
2024-03-10T02:36:26.507Z,54.66
2024-03-10T02:37:26.654Z,51.52
2024-03-10T02:38:26.779Z,54.35
2024-03-10T02:39:26.900Z,51.87
2024-03-10T02:40:26.886Z,51.42
2024-03-10T02:41:27.074Z,52.23
2024-03-10T02:42:27.124Z,53.50
2024-03-10T02:43:27.215Z,52.63
2024-03-10T02:44:27.376Z,51.40
2024-03-10T02:45:27.411Z,54.41
2024-03-10T02:46:27.479Z,51.31
2024-03-10T02:47:27.676Z,52.86
2024-03-10T02:48:27.753Z,51.62
2024-03-10T02:49:27.804Z,51.08
2024-03-10T02:50:28.043Z,53.97
2024-03-10T02:51:28.096Z,52.99
2024-03-10T02:52:28.209Z,52.98
2024-03-10T02:53:28.377Z,54.22
2024-03-10T02:54:28.432Z,53.46
2024-03-10T02:55:28.595Z,55.00
2024-03-10T02:56:28.740Z,53.35
2024-03-10T02:57:28.800Z,54.69
2024-03-10T02:58:28.978Z,51.67
2024-03-10T02:59:29.103Z,51.44
2024-03-10T03:00:29.209Z,54.13
2024-03-10T03:01:29.377Z,52.39
2024-03-10T03:02:29.521Z,52.06
2024-03-10T03:03:29.638Z,52.30
2024-03-10T03:04:29.844Z,51.94
2024-03-10T03:05:29.979Z,54.61
2024-03-10T03:06:30.015Z,53.69
2024-03-10T03:07:30.125Z,53.46
2024-03-10T03:08:30.283Z,54.64
2024-03-10T03:09:30.430Z,50.00
2024-03-10T03:10:30.540Z,54.39
2024-03-10T03:11:30.724Z,55.44
2024-03-10T03:12:30.859Z,50.68
2024-03-10T03:13:30.948Z,54.28
2024-03-10T03:14:31.143Z,53.24
2024-03-10T03:15:31.241Z,53.20
2024-03-10T03:16:31.491Z,52.13
2024-03-10T03:17:31.612Z,55.22
2024-03-10T03:18:31.606Z,54.63
2024-03-10T03:19:31.739Z,54.30
2024-03-10T03:20:32.041Z,52.59
2024-03-10T03:21:32.004Z,54.12
2024-03-10T03:22:32.143Z,53.69
2024-03-10T03:23:32.373Z,51.63
2024-03-10T03:24:32.391Z,50.66
2024-03-10T03:25:32.549Z,53.39
2024-03-10T03:26:32.718Z,52.57
2024-03-10T03:27:32.773Z,54.46
2024-03-10T03:28:32.896Z,52.97
2024-03-10T03:29:33.101Z,53.52
2024-03-10T03:30:33.188Z,52.39
2024-03-10T03:31:33.288Z,54.45
2024-03-10T03:32:33.477Z,52.67
2024-03-10T03:33:33.578Z,52.96
2024-03-10T03:34:33.721Z,53.12
2024-03-10T03:35:33.886Z,54.75
2024-03-10T03:36:33.999Z,52.95
2024-03-10T03:37:34.156Z,51.68
2024-03-10T03:38:34.303Z,51.90
2024-03-10T03:39:34.454Z,52.44
2024-03-10T03:40:34.553Z,52.55
2024-03-10T03:41:34.739Z,54.22
2024-03-10T03:42:34.899Z,54.25
2024-03-10T03:43:35.033Z,52.76
2024-03-10T03:44:35.130Z,53.61
2024-03-10T03:45:35.316Z,53.14
2024-03-10T03:46:35.434Z,52.89
2024-03-10T03:47:35.669Z,54.20
2024-03-10T03:48:35.691Z,54.88
2024-03-10T03:49:35.857Z,53.16
2024-03-10T03:50:36.002Z,52.43
2024-03-10T03:51:36.107Z,53.08
2024-03-10T03:52:36.252Z,52.07
2024-03-10T03:53:36.447Z,52.38
2024-03-10T03:54:36.525Z,54.62
2024-03-10T03:55:36.657Z,54.25
2024-03-10T03:56:36.836Z,54.85
2024-03-10T03:57:37.941Z,53.70
2024-03-10T03:58:37.078Z,53.78
2024-03-10T03:59:37.224Z,55.19
2024-03-10T04:00:37.426Z,57.04
2024-03-10T04:01:37.551Z,56.32
2024-03-10T04:02:37.662Z,51.50
2024-03-10T04:03:37.819Z,52.26
2024-03-10T04:04:37.926Z,52.09
2024-03-10T04:05:38.087Z,54.40
2024-03-10T04:06:38.207Z,53.06
2024-03-10T04:07:38.338Z,55.67
2024-03-10T04:08:38.522Z,57.80
2024-03-10T04:09:38.684Z,54.44
2024-03-10T04:10:38.768Z,52.68
2024-03-10T04:11:39.010Z,54.71
2024-03-10T04:12:39.116Z,52.99
2024-03-10T04:13:39.222Z,51.20
2024-03-10T04:14:39.380Z,50.07
2024-03-10T04:15:39.522Z,52.63
2024-03-10T04:16:39.654Z,53.83
2024-03-10T04:17:39.888Z,53.70
2024-03-10T04:18:39.962Z,52.67
2024-03-10T04:19:40.123Z,54.34
2024-03-10T04:20:40.252Z,54.62
2024-03-10T04:21:40.413Z,54.97
2024-03-10T04:22:40.554Z,52.46
2024-03-10T04:23:40.720Z,53.27
2024-03-10T04:24:40.955Z,52.43
2024-03-10T04:25:40.957Z,53.02
2024-03-10T04:26:41.132Z,55.05
2024-03-10T04:27:41.278Z,54.96
2024-03-10T04:28:41.422Z,55.58
2024-03-10T04:29:48.605Z,50.00
2024-03-10T04:30:48.564Z,50.00
2024-03-10T04:31:55.778Z,50.00
2024-03-10T04:32:55.776Z,50.00
2024-03-10T04:33:55.793Z,50.00
2024-03-10T04:34:55.915Z,50.00
2024-03-10T04:35:55.753Z,50.00
2024-03-10T04:36:55.740Z,50.20
2024-03-10T04:37:55.820Z,51.57
2024-03-10T04:38:55.823Z,53.37
2024-03-10T04:39:55.795Z,54.18
2024-03-10T04:40:55.781Z,54.24
2024-03-10T04:41:55.761Z,52.77
2024-03-10T04:42:55.790Z,53.62
2024-03-10T04:43:55.838Z,52.46
2024-03-10T04:44:55.820Z,50.35
2024-03-10T04:45:55.801Z,54.29
2024-03-10T04:46:55.929Z,54.45
2024-03-10T04:47:55.888Z,54.50
2024-03-10T04:48:55.830Z,50.00
2024-03-10T04:49:55.890Z,51.28
2024-03-10T04:50:55.860Z,52.64
2024-03-10T04:51:55.865Z,50.67
2024-03-10T04:52:55.879Z,50.29
2024-03-10T04:53:55.882Z,53.03
2024-03-10T04:54:55.849Z,53.87
2024-03-10T04:55:55.949Z,53.46
2024-03-10T04:56:55.888Z,52.54
2024-03-10T04:57:55.880Z,52.71
2024-03-10T04:58:55.938Z,52.29
2024-03-10T04:59:55.916Z,52.35
2024-03-10T05:00:55.990Z,53.88
2024-03-10T05:01:55.931Z,51.06
2024-03-10T05:02:55.902Z,55.56
2024-03-10T05:03:55.937Z,54.22
2024-03-10T05:04:55.961Z,52.29
2024-03-10T05:05:55.970Z,51.51
2024-03-10T05:06:56.044Z,52.82
2024-03-10T05:07:56.266Z,54.03
2024-03-10T05:08:56.262Z,50.08
2024-03-10T05:09:56.325Z,51.53
2024-03-10T05:10:56.540Z,53.76
2024-03-10T05:11:56.637Z,53.09
2024-03-10T05:12:56.605Z,57.80
2024-03-10T05:13:56.765Z,54.97
2024-03-10T05:14:56.801Z,52.89
2024-03-10T05:15:56.891Z,51.81
2024-03-10T05:16:56.971Z,57.49
2024-03-10T05:17:57.077Z,52.12
2024-03-10T05:18:57.167Z,51.76
2024-03-10T05:19:57.239Z,53.08
2024-03-10T05:20:57.298Z,50.00
2024-03-10T05:21:57.370Z,52.60
2024-03-10T05:22:57.529Z,52.46
2024-03-10T05:23:57.561Z,53.81
2024-03-10T05:24:57.633Z,52.36
2024-03-10T05:25:57.704Z,51.23
2024-03-10T05:26:57.773Z,53.62
2024-03-10T05:27:57.849Z,52.39
2024-03-10T05:28:57.977Z,51.74
2024-03-10T05:29:58.053Z,53.64
2024-03-10T05:30:58.124Z,53.54
2024-03-10T05:31:58.295Z,55.33
2024-03-10T05:32:58.374Z,56.99
2024-03-10T05:33:58.403Z,50.00
2024-03-10T05:34:58.526Z,54.97
2024-03-10T05:35:58.577Z,55.29
2024-03-10T05:36:58.660Z,54.38
2024-03-10T05:37:58.751Z,56.95
2024-03-10T05:38:58.843Z,56.43
2024-03-10T05:39:58.877Z,59.35
2024-03-10T05:40:59.089Z,56.60
2024-03-10T05:41:59.077Z,57.37
2024-03-10T05:42:59.161Z,56.92
2024-03-10T05:43:59.264Z,52.58
2024-03-10T05:44:59.303Z,55.06
2024-03-10T05:45:59.417Z,58.83
2024-03-10T05:47:01.091Z,54.83
2024-03-10T05:47:59.531Z,58.29
2024-03-10T05:48:59.570Z,59.67
2024-03-10T05:49:59.538Z,60.78
2024-03-10T05:50:59.495Z,57.73
2024-03-10T05:51:59.524Z,59.00
2024-03-10T05:52:59.544Z,59.77
2024-03-10T05:53:59.494Z,59.17
2024-03-10T05:54:59.497Z,57.34
2024-03-10T05:55:59.577Z,62.25
2024-03-10T05:56:59.501Z,59.46
2024-03-10T05:57:59.511Z,58.78
2024-03-10T05:58:59.550Z,58.51
2024-03-10T05:59:59.562Z,59.63
2024-03-10T06:00:59.548Z,60.61
2024-03-10T06:01:59.572Z,61.62
2024-03-10T06:02:59.542Z,59.98
2024-03-10T06:03:59.548Z,63.59
2024-03-10T06:04:59.589Z,59.63
2024-03-10T06:06:01.278Z,57.88
2024-03-10T06:06:59.546Z,59.19
2024-03-10T06:07:59.594Z,60.45
2024-03-10T06:08:59.546Z,59.68
2024-03-10T06:09:59.541Z,61.01
2024-03-10T06:10:59.716Z,58.22
2024-03-10T06:11:59.666Z,59.50
2024-03-10T06:12:59.565Z,56.36
2024-03-10T06:13:59.566Z,59.74
2024-03-10T06:14:59.522Z,58.05
2024-03-10T06:15:59.528Z,59.07
2024-03-10T06:16:59.671Z,57.59
2024-03-10T06:17:59.561Z,56.79
2024-03-10T06:18:59.578Z,58.15
2024-03-10T06:19:59.608Z,56.21
2024-03-10T06:20:59.618Z,57.98
2024-03-10T06:21:59.674Z,59.42
2024-03-10T06:22:59.745Z,58.03
2024-03-10T06:23:59.818Z,60.48
2024-03-10T06:24:59.865Z,57.32
2024-03-10T06:25:59.967Z,56.85
2024-03-10T06:27:00.023Z,58.32
2024-03-10T06:28:00.092Z,55.74
2024-03-10T06:29:00.277Z,56.56
2024-03-10T06:30:00.393Z,54.90
2024-03-10T06:31:00.393Z,56.55
2024-03-10T06:32:00.574Z,54.82
2024-03-10T06:33:00.540Z,57.29
2024-03-10T06:34:00.574Z,57.66
2024-03-10T06:35:00.735Z,55.26
2024-03-10T06:36:00.743Z,56.47
2024-03-10T06:37:00.824Z,56.68
2024-03-10T06:38:00.909Z,54.40
2024-03-10T06:39:00.951Z,56.88
2024-03-10T06:40:00.999Z,55.15
2024-03-10T06:41:01.125Z,54.85
2024-03-10T06:42:01.189Z,54.68
2024-03-10T06:43:01.240Z,55.59
2024-03-10T06:44:01.385Z,57.23
2024-03-10T06:45:01.418Z,54.25
2024-03-10T06:46:01.506Z,53.14
2024-03-10T06:47:01.617Z,56.49
2024-03-10T06:48:01.685Z,53.88
2024-03-10T06:49:01.717Z,54.89
2024-03-10T06:50:01.935Z,53.89
2024-03-10T06:51:01.947Z,53.86
2024-03-10T06:52:01.989Z,54.72
2024-03-10T06:53:02.046Z,52.64
2024-03-10T06:54:02.107Z,53.17
2024-03-10T06:55:02.202Z,52.51
2024-03-10T06:56:02.770Z,54.11
2024-03-10T06:57:02.380Z,55.58
2024-03-10T06:58:02.519Z,53.13
2024-03-10T06:59:02.623Z,53.29
2024-03-10T07:00:02.892Z,51.84
2024-03-10T07:01:02.673Z,53.67
2024-03-10T07:02:02.805Z,52.65
2024-03-10T07:03:02.869Z,55.01
2024-03-10T07:04:02.946Z,52.94
2024-03-10T07:05:03.049Z,54.44
2024-03-10T07:06:03.587Z,50.46
2024-03-10T07:07:03.362Z,50.88
2024-03-10T07:08:03.335Z,51.76
2024-03-10T07:09:03.336Z,51.11
2024-03-10T07:10:03.460Z,56.56
2024-03-10T07:11:03.588Z,54.56
2024-03-10T07:12:03.778Z,50.98
2024-03-10T07:13:03.715Z,53.14
2024-03-10T07:14:03.921Z,50.00
2024-03-10T07:15:03.875Z,52.55
2024-03-10T07:16:04.020Z,52.90
2024-03-10T07:17:04.095Z,54.23
2024-03-10T07:18:04.150Z,51.33
2024-03-10T07:19:04.250Z,51.86
2024-03-10T07:20:04.412Z,51.77
2024-03-10T07:21:04.371Z,53.52
2024-03-10T07:22:04.472Z,53.07
2024-03-10T07:23:04.635Z,52.10
2024-03-10T07:24:04.709Z,52.50
2024-03-10T07:25:04.773Z,54.15
2024-03-10T07:26:04.896Z,50.94
2024-03-10T07:27:04.930Z,54.25
2024-03-10T07:28:05.035Z,52.79
2024-03-10T07:29:05.209Z,54.68
2024-03-10T07:30:05.201Z,53.92
2024-03-10T07:31:05.259Z,53.30
2024-03-10T07:32:05.418Z,53.64
2024-03-10T07:33:05.480Z,54.82
2024-03-10T07:34:05.574Z,53.68
2024-03-10T07:35:05.708Z,52.87
2024-03-10T07:36:05.760Z,54.14
2024-03-10T07:37:05.855Z,51.75
2024-03-10T07:38:05.972Z,52.33
2024-03-10T07:39:06.018Z,51.94
2024-03-10T07:40:06.088Z,50.84
2024-03-10T07:41:06.253Z,53.55
2024-03-10T07:42:06.283Z,53.33
2024-03-10T07:43:06.467Z,50.96
2024-03-10T07:44:06.572Z,51.34
2024-03-10T07:45:06.618Z,53.97
2024-03-10T07:46:06.766Z,58.27
2024-03-10T07:47:06.872Z,56.32
2024-03-10T07:48:07.398Z,60.79
2024-03-10T07:49:07.088Z,58.28
2024-03-10T07:50:07.210Z,58.26
2024-03-10T07:51:07.282Z,61.29
2024-03-10T07:52:07.394Z,60.55
2024-03-10T07:53:07.502Z,59.96
2024-03-10T07:54:07.593Z,62.30
2024-03-10T07:55:07.702Z,62.94
2024-03-10T07:56:07.847Z,60.24
2024-03-10T07:57:07.909Z,59.68
2024-03-10T07:58:08.052Z,58.79
2024-03-10T07:59:08.181Z,56.30
2024-03-10T08:00:08.232Z,55.73
2024-03-10T08:01:08.400Z,55.86
2024-03-10T08:02:08.474Z,54.97
2024-03-10T08:03:08.557Z,52.77
2024-03-10T08:04:08.664Z,52.18
2024-03-10T08:05:08.809Z,51.10
2024-03-10T08:06:08.891Z,52.30
2024-03-10T08:07:09.033Z,53.35
2024-03-10T08:08:09.113Z,51.42
2024-03-10T08:09:09.222Z,55.69
2024-03-10T08:10:09.309Z,55.86
2024-03-10T08:11:09.503Z,55.23
2024-03-10T08:12:09.794Z,57.68
2024-03-10T08:13:09.660Z,59.36
2024-03-10T08:14:09.765Z,57.88
2024-03-10T08:15:09.813Z,56.93
2024-03-10T08:16:09.951Z,58.65
2024-03-10T08:17:10.014Z,61.37
2024-03-10T08:18:10.168Z,60.01
2024-03-10T08:19:10.216Z,62.60
2024-03-10T08:20:10.385Z,60.36
2024-03-10T08:21:10.432Z,63.06
2024-03-10T08:22:10.461Z,60.03
2024-03-10T08:23:10.664Z,62.06
2024-03-10T08:24:10.749Z,60.47
2024-03-10T08:25:10.820Z,62.14
2024-03-10T08:26:11.141Z,61.00
2024-03-10T08:27:10.982Z,64.58
2024-03-10T08:28:11.055Z,63.99
2024-03-10T08:29:11.244Z,62.76
2024-03-10T08:30:11.579Z,65.06
2024-03-10T08:31:11.389Z,62.07
2024-03-10T08:32:11.561Z,66.47
2024-03-10T08:33:11.654Z,65.50
2024-03-10T08:34:11.635Z,61.79
2024-03-10T08:35:16.278Z,64.34
2024-03-10T08:36:12.755Z,64.40
2024-03-10T08:37:11.755Z,61.00
2024-03-10T08:38:11.808Z,61.52
2024-03-10T08:39:11.793Z,59.25
2024-03-10T08:40:11.815Z,64.17
2024-03-10T08:41:11.829Z,62.27
2024-03-10T08:42:11.785Z,60.54
2024-03-10T08:43:11.807Z,61.09
2024-03-10T08:44:11.848Z,58.66
2024-03-10T08:45:12.252Z,57.73
2024-03-10T08:46:11.853Z,56.57
2024-03-10T08:47:11.975Z,55.63
2024-03-10T08:48:11.949Z,57.99
2024-03-10T08:49:12.008Z,52.62
2024-03-10T08:50:12.212Z,56.18
2024-03-10T08:51:12.129Z,51.13
2024-03-10T08:52:12.182Z,51.57
2024-03-10T08:53:12.201Z,57.03
2024-03-10T08:54:12.263Z,55.89
2024-03-10T08:55:12.298Z,57.16
2024-03-10T08:56:12.493Z,55.84
2024-03-10T08:57:12.420Z,55.63
2024-03-10T08:58:12.436Z,56.24
2024-03-10T08:59:12.557Z,53.44
2024-03-10T09:00:12.663Z,53.43
2024-03-10T09:01:12.771Z,53.49
2024-03-10T09:02:12.897Z,53.45
2024-03-10T09:03:12.956Z,55.61
2024-03-10T09:04:13.059Z,57.21
2024-03-10T09:05:13.169Z,57.85
2024-03-10T09:06:13.262Z,55.80
2024-03-10T09:07:13.356Z,56.49
2024-03-10T09:08:13.459Z,56.86
2024-03-10T09:09:13.585Z,59.11
2024-03-10T09:10:13.630Z,56.31
2024-03-10T09:11:13.831Z,56.31
2024-03-10T09:12:13.967Z,58.65
2024-03-10T09:13:13.953Z,59.39
2024-03-10T09:14:14.103Z,61.18
2024-03-10T09:15:14.694Z,61.80
2024-03-10T09:16:14.347Z,61.46
2024-03-10T09:17:17.966Z,63.76
2024-03-10T09:18:15.493Z,63.90
2024-03-10T09:19:14.438Z,64.38
2024-03-10T09:20:14.795Z,65.78
2024-03-10T09:21:14.423Z,68.06
2024-03-10T09:22:14.440Z,68.59
2024-03-10T09:23:14.546Z,70.18
2024-03-10T09:24:14.446Z,69.80
2024-03-10T09:25:14.456Z,72.55
2024-03-10T09:26:14.539Z,73.25
2024-03-10T09:27:14.471Z,73.91
2024-03-10T09:28:14.476Z,72.71
2024-03-10T09:29:14.516Z,75.49
2024-03-10T09:30:14.510Z,74.55
2024-03-10T09:31:14.462Z,77.66
2024-03-10T09:32:14.459Z,77.52
2024-03-10T09:33:14.506Z,79.71
2024-03-10T09:34:14.619Z,79.49
2024-03-10T09:35:14.724Z,81.56
2024-03-10T09:36:14.815Z,80.69
2024-03-10T09:37:14.946Z,83.65
2024-03-10T09:38:15.061Z,85.29
2024-03-10T09:39:15.173Z,85.02
2024-03-10T09:40:15.251Z,82.39
2024-03-10T09:41:15.401Z,86.08
2024-03-10T09:42:15.724Z,85.05
2024-03-10T09:43:15.602Z,86.82
2024-03-10T09:44:15.753Z,88.46
2024-03-10T09:45:15.812Z,88.29
2024-03-10T09:46:15.924Z,89.79
2024-03-10T09:47:16.109Z,87.95
2024-03-10T09:48:16.281Z,89.41
2024-03-10T09:49:16.283Z,89.67
2024-03-10T09:50:16.487Z,88.75
2024-03-10T09:51:16.479Z,92.04
2024-03-10T09:52:16.645Z,90.91
2024-03-10T09:53:16.729Z,91.71
2024-03-10T09:54:16.818Z,90.81
2024-03-10T09:55:16.902Z,90.98
2024-03-10T09:56:17.064Z,91.63
2024-03-10T09:57:17.156Z,90.13
2024-03-10T09:58:26.197Z,90.12
2024-03-10T09:59:18.289Z,90.23
2024-03-10T10:00:17.267Z,90.16
2024-03-10T10:01:17.286Z,90.38
2024-03-10T10:02:17.281Z,91.01
2024-03-10T10:03:17.294Z,88.84
2024-03-10T10:04:17.233Z,90.12
2024-03-10T10:05:17.239Z,90.59
2024-03-10T10:06:17.199Z,90.91
2024-03-10T10:07:17.205Z,88.97
2024-03-10T10:08:17.424Z,86.91
2024-03-10T10:09:17.441Z,87.40
2024-03-10T10:10:17.513Z,87.82
2024-03-10T10:11:17.738Z,88.01
2024-03-10T10:12:17.760Z,89.52
2024-03-10T10:13:17.853Z,85.83
2024-03-10T10:14:18.112Z,88.60
2024-03-10T10:15:18.064Z,88.08
2024-03-10T10:16:18.175Z,88.63
2024-03-10T10:17:18.355Z,89.24
2024-03-10T10:18:18.434Z,87.96
2024-03-10T10:19:18.553Z,89.51
2024-03-10T10:20:18.629Z,89.27
2024-03-10T10:21:18.682Z,88.40
2024-03-10T10:22:18.802Z,88.58
2024-03-10T10:23:19.058Z,88.98
2024-03-10T10:24:19.513Z,89.19
2024-03-10T10:25:19.056Z,89.66
2024-03-10T10:26:19.093Z,90.86
2024-03-10T10:27:19.052Z,89.68
2024-03-10T10:28:19.137Z,90.36
2024-03-10T10:29:19.211Z,90.80
2024-03-10T10:30:19.170Z,89.95
2024-03-10T10:31:19.175Z,87.57
2024-03-10T10:32:19.235Z,87.99
2024-03-10T10:33:19.277Z,89.36
2024-03-10T10:34:21.393Z,88.74
2024-03-10T10:35:19.375Z,87.88
2024-03-10T10:36:19.394Z,87.96
2024-03-10T10:37:19.517Z,89.70
2024-03-10T10:38:19.494Z,85.69
2024-03-10T10:39:19.485Z,86.20
2024-03-10T10:40:19.510Z,85.03
2024-03-10T10:41:19.549Z,86.16
2024-03-10T10:42:26.726Z,85.55
2024-03-10T10:43:20.558Z,85.55
2024-03-10T10:44:19.586Z,84.90
2024-03-10T10:45:19.602Z,83.77
2024-03-10T10:46:19.543Z,83.54
2024-03-10T10:47:19.642Z,87.72
2024-03-10T10:48:19.654Z,85.78
2024-03-10T10:49:19.573Z,87.06
2024-03-10T10:50:19.624Z,84.70
2024-03-10T10:51:19.572Z,83.96
2024-03-10T10:52:19.561Z,84.86
2024-03-10T10:53:19.609Z,86.07
2024-03-10T10:54:19.560Z,84.41
2024-03-10T10:55:19.561Z,83.87
2024-03-10T10:56:19.633Z,83.61
2024-03-10T10:57:19.541Z,82.97
2024-03-10T10:58:19.546Z,83.99
2024-03-10T10:59:19.619Z,82.53
2024-03-10T11:00:19.597Z,82.81
2024-03-10T11:01:19.776Z,82.98
2024-03-10T11:02:19.829Z,83.62
2024-03-10T11:03:19.870Z,83.29
2024-03-10T11:04:20.028Z,82.68
2024-03-10T11:05:20.189Z,82.38
2024-03-10T11:06:20.218Z,82.61
2024-03-10T11:07:20.361Z,84.02
2024-03-10T11:08:20.449Z,83.14
2024-03-10T11:09:20.524Z,81.74
2024-03-10T11:10:20.650Z,81.72
2024-03-10T11:11:20.814Z,81.36
2024-03-10T11:12:20.850Z,81.46
2024-03-10T11:13:20.942Z,81.13
2024-03-10T11:14:21.056Z,84.18
2024-03-10T11:15:21.162Z,84.89
2024-03-10T11:16:21.306Z,84.83
2024-03-10T11:17:21.499Z,83.86
2024-03-10T11:18:21.485Z,82.81
2024-03-10T11:19:21.530Z,82.86
2024-03-10T11:20:23.735Z,79.43
2024-03-10T11:21:21.648Z,80.19
2024-03-10T11:22:21.727Z,81.38
2024-03-10T11:23:21.633Z,80.41
2024-03-10T11:24:21.651Z,81.35
2024-03-10T11:25:21.736Z,78.67
2024-03-10T11:26:23.877Z,81.12
2024-03-10T11:27:21.666Z,79.16
2024-03-10T11:28:21.600Z,80.39
2024-03-10T11:29:21.668Z,81.17
2024-03-10T11:30:21.625Z,80.56
2024-03-10T11:31:21.653Z,78.76
2024-03-10T11:32:23.613Z,84.02
2024-03-10T11:33:21.650Z,83.43
2024-03-10T11:34:21.699Z,84.05
2024-03-10T11:35:21.840Z,83.95
2024-03-10T11:36:21.667Z,84.22
2024-03-10T11:37:21.677Z,83.78
2024-03-10T11:38:21.733Z,81.08
2024-03-10T11:39:21.756Z,84.85
2024-03-10T11:40:21.666Z,84.89
2024-03-10T11:41:21.716Z,85.66
2024-03-10T11:42:21.671Z,84.35
2024-03-10T11:43:21.664Z,85.59
2024-03-10T11:44:21.708Z,86.88
2024-03-10T11:45:21.719Z,82.79
2024-03-10T11:46:21.634Z,86.93
2024-03-10T11:47:21.662Z,84.54
2024-03-10T11:48:23.185Z,86.08
2024-03-10T11:49:21.638Z,85.20
2024-03-10T11:50:21.626Z,84.51
2024-03-10T11:51:21.624Z,85.56
2024-03-10T11:52:21.713Z,82.77
2024-03-10T11:53:21.660Z,85.23
2024-03-10T11:54:22.952Z,84.04
2024-03-10T11:55:21.597Z,83.84
2024-03-10T11:56:21.670Z,82.39
2024-03-10T11:57:21.620Z,83.37
2024-03-10T11:58:21.691Z,85.09
2024-03-10T11:59:21.652Z,83.26
2024-03-10T12:00:22.838Z,82.76
2024-03-10T12:01:21.701Z,82.80
2024-03-10T12:02:21.662Z,82.62
2024-03-10T12:03:21.602Z,83.19
2024-03-10T12:04:21.615Z,83.43
2024-03-10T12:05:21.701Z,84.91
2024-03-10T12:06:23.208Z,83.54
2024-03-10T12:07:21.575Z,87.74
2024-03-10T12:08:21.589Z,84.61
2024-03-10T12:09:21.590Z,85.46
2024-03-10T12:10:21.616Z,87.67
2024-03-10T12:11:21.611Z,85.20
2024-03-10T12:12:22.433Z,85.38
2024-03-10T12:13:21.552Z,83.71
2024-03-10T12:14:21.602Z,87.24
2024-03-10T12:15:21.554Z,87.68
2024-03-10T12:16:21.535Z,87.14
2024-03-10T12:17:21.614Z,87.86
2024-03-10T12:18:21.711Z,86.19
2024-03-10T12:19:21.878Z,89.14
2024-03-10T12:20:22.060Z,89.11
2024-03-10T12:21:21.945Z,85.21
2024-03-10T12:22:22.040Z,84.44
2024-03-10T12:23:22.194Z,88.05
2024-03-10T12:24:22.321Z,87.17
2024-03-10T12:25:22.369Z,84.23
2024-03-10T12:26:22.496Z,85.30
2024-03-10T12:27:22.513Z,85.03
2024-03-10T12:28:22.645Z,86.27
2024-03-10T12:29:22.806Z,85.50
2024-03-10T12:30:22.881Z,86.72
2024-03-10T12:31:25.576Z,84.76
2024-03-10T12:32:22.927Z,85.99
2024-03-10T12:33:22.947Z,85.05
2024-03-10T12:34:22.936Z,86.86
2024-03-10T12:35:23.453Z,85.87
2024-03-10T12:36:22.954Z,84.90
2024-03-10T12:37:22.897Z,87.29
2024-03-10T12:38:22.954Z,87.62
2024-03-10T12:39:22.904Z,86.29
2024-03-10T12:40:23.119Z,86.77
2024-03-10T12:41:22.932Z,89.49
2024-03-10T12:42:22.902Z,88.36
2024-03-10T12:43:22.856Z,85.98
2024-03-10T12:44:22.947Z,87.82
2024-03-10T12:45:22.971Z,85.45
2024-03-10T12:46:22.922Z,84.98
2024-03-10T12:47:22.934Z,85.73
2024-03-10T12:48:22.914Z,86.75
2024-03-10T12:49:22.894Z,85.46
2024-03-10T12:50:22.936Z,84.88
2024-03-10T12:51:22.855Z,83.34
2024-03-10T12:52:22.911Z,87.49
2024-03-10T12:53:22.945Z,86.86